createdAt,value
2023-04-01T00:01:27.045Z,99114.69
2023-04-01T00:03:55.051Z,99113.50
2023-04-01T00:06:21.746Z,99125.28
2023-04-01T00:08:48.601Z,99114.09
2023-04-01T00:11:16.853Z,99124.56
2023-04-01T00:13:44.206Z,99111.38
2023-04-01T00:16:21.198Z,99118.47
2023-04-01T00:18:49.728Z,99114.72
2023-04-01T00:21:16.879Z,99118.41
2023-04-01T00:23:44.621Z,99117.06
2023-04-01T00:26:12.969Z,99115.53
2023-04-01T00:28:41.018Z,99129.44
2023-04-01T00:31:09.968Z,99129.28
2023-04-01T00:33:37.832Z,99119.31
2023-04-01T00:36:23.034Z,99130.16
2023-04-01T00:38:51.339Z,99133.47
2023-04-01T00:41:19.255Z,99125.03
2023-04-01T00:43:48.328Z,99131.34
2023-04-01T00:46:15.944Z,99126.44
2023-04-01T00:48:51.513Z,99131.81
2023-04-01T00:51:24.120Z,99129.91
2023-04-01T00:53:53.572Z,99123.59
2023-04-01T00:56:29.266Z,99133.44
2023-04-01T00:59:01.237Z,99128.34
2023-04-01T01:01:31.292Z,99130.69
2023-04-01T01:03:58.583Z,99131.97
2023-04-01T01:06:47.349Z,99137.97
2023-04-01T01:09:25.112Z,99131.31
2023-04-01T01:12:00.813Z,99134.03
2023-04-01T01:14:52.383Z,99135.31
2023-04-01T01:17:37.358Z,99136.31
2023-04-01T01:20:25.221Z,99134.88
2023-04-01T01:23:30.703Z,99135.09
2023-04-01T01:26:09.602Z,99130.28
2023-04-01T01:28:38.937Z,99135.47
2023-04-01T01:32:05.606Z,99137.44
2023-04-01T01:35:09.635Z,99134.19
2023-04-01T01:37:38.289Z,99135.94
2023-04-01T01:40:10.949Z,99134.75
2023-04-01T01:42:42.420Z,99131.06
2023-04-01T01:45:11.616Z,99133.25
2023-04-01T01:47:39.203Z,99139.31
2023-04-01T01:50:09.034Z,99144.50
2023-04-01T01:52:36.122Z,99143.78
2023-04-01T01:55:04.047Z,99135.25
2023-04-01T01:57:41.268Z,99145.88
2023-04-01T02:00:15.687Z,99144.28
2023-04-01T02:02:46.384Z,99148.69
2023-04-01T02:05:19.714Z,99144.56
2023-04-01T02:07:54.931Z,99146.44
2023-04-01T02:10:26.068Z,99145.03
2023-04-01T02:12:58.837Z,99152.69
2023-04-01T02:15:28.216Z,99145.09
2023-04-01T02:17:57.917Z,99148.06
2023-04-01T02:20:25.495Z,99149.47
2023-04-01T02:22:55.768Z,99149.41
2023-04-01T02:25:29.495Z,99140.22
2023-04-01T02:27:58.514Z,99154.34
2023-04-01T02:30:28.003Z,99150.13
2023-04-01T02:32:57.749Z,99155.09
2023-04-01T02:35:25.865Z,99159.16
2023-04-01T02:37:55.303Z,99156.31
2023-04-01T02:40:22.347Z,99156.31
2023-04-01T02:42:49.269Z,99154.63
2023-04-01T02:45:16.188Z,99164.44
2023-04-01T02:47:43.389Z,99161.03
2023-04-01T02:50:10.957Z,99164.06
2023-04-01T02:52:37.859Z,99167.97
2023-04-01T02:55:05.607Z,99175.44
2023-04-01T02:57:33.338Z,99178.41
2023-04-01T02:59:59.985Z,99170.09
2023-04-01T03:02:26.830Z,99177.19
2023-04-01T03:04:53.594Z,99178.13
2023-04-01T03:07:20.266Z,99184.72
2023-04-01T03:09:46.891Z,99182.19
2023-04-01T03:12:13.643Z,99184.50
2023-04-01T03:14:49.538Z,99188.66
2023-04-01T03:17:16.512Z,99192.88
2023-04-01T03:19:43.265Z,99178.34
2023-04-01T03:22:12.852Z,99188.09
2023-04-01T03:24:39.548Z,99190.13
2023-04-01T03:27:06.376Z,99187.34
2023-04-01T03:29:33.060Z,99182.66
2023-04-01T03:32:00.429Z,99187.78
2023-04-01T03:34:27.156Z,99188.78
2023-04-01T03:36:54.160Z,99191.44
2023-04-01T03:39:20.865Z,99188.91
2023-04-01T03:41:47.820Z,99192.19
2023-04-01T03:44:14.561Z,99188.50
2023-04-01T03:46:41.918Z,99186.56
2023-04-01T03:49:12.812Z,99195.97
2023-04-01T03:51:41.737Z,99199.81
2023-04-01T03:54:09.229Z,99201.34
2023-04-01T03:56:35.911Z,99197.25
2023-04-01T03:59:05.255Z,99204.31
2023-04-01T04:01:32.608Z,99196.63
2023-04-01T04:04:00.233Z,99203.16
2023-04-01T04:06:28.382Z,99205.03
2023-04-01T04:08:55.039Z,99204.97
2023-04-01T04:11:22.886Z,99211.50
2023-04-01T04:13:53.199Z,99211.50
2023-04-01T04:16:20.927Z,99208.66
2023-04-01T04:18:54.266Z,99217.00
2023-04-01T04:21:20.987Z,99217.78
2023-04-01T04:23:47.608Z,99223.69
2023-04-01T04:26:16.789Z,99224.06
2023-04-01T04:28:49.101Z,99224.19
2023-04-01T04:31:22.461Z,99225.75
2023-04-01T04:33:51.129Z,99224.69
2023-04-01T04:36:19.049Z,99229.22
2023-04-01T04:38:47.307Z,99239.19
2023-04-01T04:41:16.581Z,99240.63
2023-04-01T04:43:58.700Z,99249.84
2023-04-01T04:46:26.333Z,99244.72
2023-04-01T04:49:04.118Z,99254.00
2023-04-01T04:51:31.164Z,99258.63
2023-04-01T04:53:57.803Z,99270.22
2023-04-01T04:56:36.889Z,99264.72
2023-04-01T04:59:07.448Z,99268.25
2023-04-01T05:01:43.007Z,99272.34
2023-04-01T05:04:09.775Z,99269.09
2023-04-01T05:06:36.647Z,99281.66
2023-04-01T05:09:03.910Z,99283.44
2023-04-01T05:11:30.525Z,99288.69
2023-04-01T05:13:57.422Z,99291.66
2023-04-01T05:16:24.306Z,99291.66
2023-04-01T05:18:51.015Z,99293.22
2023-04-01T05:21:17.740Z,99304.91
2023-04-01T05:23:45.096Z,99310.97
2023-04-01T05:26:14.069Z,99311.50
2023-04-01T05:28:41.000Z,99311.22
2023-04-01T05:31:08.608Z,99309.13
2023-04-01T05:33:38.353Z,99313.69
2023-04-01T05:36:08.658Z,99319.97
2023-04-01T05:38:35.677Z,99321.78
2023-04-01T05:41:03.847Z,99334.13
2023-04-01T05:43:32.815Z,99336.94
2023-04-01T05:46:08.827Z,99336.75
2023-04-01T05:48:48.528Z,99337.22
2023-04-01T05:51:16.534Z,99366.34
2023-04-01T05:53:43.724Z,99359.94
2023-04-01T05:56:10.585Z,99352.34
2023-04-01T05:58:40.950Z,99372.19
2023-04-01T06:01:15.870Z,99358.50
2023-04-01T06:03:44.368Z,99363.59
2023-04-01T06:06:24.712Z,99367.59
2023-04-01T06:08:53.154Z,99385.72
2023-04-01T06:11:45.593Z,99378.47
2023-04-01T06:14:46.302Z,99387.25
2023-04-01T06:17:22.143Z,99378.91
2023-04-01T06:19:56.356Z,99394.34
2023-04-01T06:22:38.195Z,99391.84
2023-04-01T06:25:38.099Z,99407.69
2023-04-01T06:28:35.204Z,99411.13
2023-04-01T06:31:25.211Z,99400.09
2023-04-01T06:34:07.597Z,99400.72
2023-04-01T06:37:06.799Z,99412.63
2023-04-01T06:40:06.342Z,99417.47
2023-04-01T06:42:55.089Z,99418.59
2023-04-01T06:46:01.800Z,99416.03
2023-04-01T06:49:24.111Z,99437.09
2023-04-01T06:52:27.860Z,99440.75
2023-04-01T06:55:46.990Z,99440.00
2023-04-01T06:58:28.338Z,99447.88
2023-04-01T07:00:59.644Z,99445.25
2023-04-01T07:03:40.987Z,99457.88
2023-04-01T07:06:37.327Z,99451.09
2023-04-01T07:09:14.978Z,99445.66
2023-04-01T07:12:16.517Z,99448.78
2023-04-01T07:15:26.191Z,99465.56
2023-04-01T07:17:58.040Z,99481.09
2023-04-01T07:20:30.807Z,99472.34
2023-04-01T07:23:01.710Z,99484.69
2023-04-01T07:25:54.750Z,99484.13
2023-04-01T07:28:44.574Z,99497.88
2023-04-01T07:32:05.640Z,99486.53
2023-04-01T07:34:40.332Z,99508.16
2023-04-01T07:37:17.215Z,99514.19
2023-04-01T07:39:53.488Z,99517.06
2023-04-01T07:42:55.782Z,99520.91
2023-04-01T07:45:39.778Z,99511.28
2023-04-01T07:48:12.497Z,99518.88
2023-04-01T07:51:06.141Z,99523.72
2023-04-01T07:53:37.263Z,99525.41
2023-04-01T07:56:07.449Z,99534.81
2023-04-01T07:58:59.477Z,99539.03
2023-04-01T08:02:14.135Z,99544.97
2023-04-01T08:05:08.877Z,99550.72
2023-04-01T08:08:14.251Z,99553.53
2023-04-01T08:11:18.115Z,99560.69
2023-04-01T08:14:03.246Z,99554.44
2023-04-01T08:17:04.191Z,99571.88
2023-04-01T08:20:22.765Z,99576.47
2023-04-01T08:22:54.278Z,99575.94
2023-04-01T08:25:32.381Z,99587.09
2023-04-01T08:28:20.817Z,99588.31
2023-04-01T08:30:56.903Z,99585.00
2023-04-01T08:33:28.042Z,99601.31
2023-04-01T08:36:11.491Z,99593.53
2023-04-01T08:38:47.864Z,99603.16
2023-04-01T08:42:16.286Z,99598.84
2023-04-01T08:45:04.264Z,99619.72
2023-04-01T08:48:09.486Z,99613.44
2023-04-01T08:51:07.581Z,99614.38
2023-04-01T08:53:36.747Z,99621.25
2023-04-01T08:56:06.436Z,99621.19
2023-04-01T08:59:07.004Z,99622.47
2023-04-01T09:11:50.938Z,99629.22
2023-04-01T09:19:33.707Z,99641.31
2023-04-01T09:23:43.239Z,99651.69
2023-04-01T09:45:12.510Z,99682.47
2023-04-01T10:07:46.344Z,99711.06
2023-04-01T10:11:20.840Z,99722.47
2023-04-01T10:15:07.948Z,99722.13
2023-04-01T10:26:09.362Z,99743.50
2023-04-01T10:40:57.879Z,99750.31
2023-04-01T10:45:07.000Z,99753.31
2023-04-01T10:56:34.559Z,99767.13
2023-04-01T10:59:55.607Z,99774.00
2023-04-01T11:03:19.156Z,99771.72
2023-04-01T11:06:19.693Z,99783.16
2023-04-01T11:09:07.142Z,99780.75
2023-04-01T11:11:46.188Z,99794.50
2023-04-01T11:14:38.034Z,99793.16
2023-04-01T11:17:41.198Z,99799.66
2023-04-01T11:20:39.609Z,99810.09
2023-04-01T11:23:23.605Z,99802.00
2023-04-01T11:25:56.246Z,99803.66
2023-04-01T11:28:44.683Z,99815.25
2023-04-01T11:31:24.661Z,99816.66
2023-04-01T11:34:17.770Z,99821.66
2023-04-01T11:37:02.273Z,99833.47
2023-04-01T11:39:38.905Z,99826.97
2023-04-01T11:42:46.107Z,99830.78
2023-04-01T11:46:01.879Z,99843.94
2023-04-01T11:49:01.759Z,99841.19
2023-04-01T11:52:00.615Z,99851.09
2023-04-01T11:54:35.944Z,99856.19
2023-04-01T11:57:24.631Z,99862.63
2023-04-01T12:00:15.827Z,99869.34
2023-04-01T12:03:11.897Z,99873.78
2023-04-01T12:06:03.312Z,99877.66
2023-04-01T12:08:46.461Z,99869.47
2023-04-01T12:11:44.769Z,99882.03
2023-04-01T12:14:33.667Z,99881.03
2023-04-01T12:17:28.001Z,99899.50
2023-04-01T12:19:57.431Z,99890.94
2023-04-01T12:22:42.965Z,99895.47
2023-04-01T12:25:24.166Z,99908.81
2023-04-01T12:28:03.598Z,99929.69
2023-04-01T12:30:36.289Z,99899.75
2023-04-01T12:33:21.915Z,99906.28
2023-04-01T12:36:09.840Z,99916.63
2023-04-01T12:38:58.250Z,99922.63
2023-04-01T12:41:30.736Z,99911.69
2023-04-01T12:44:17.671Z,99936.91
2023-04-01T12:46:44.237Z,99928.66
2023-04-01T12:49:25.866Z,99944.03
2023-04-01T12:52:04.764Z,99950.97
2023-04-01T12:54:40.439Z,99953.78
2023-04-01T12:57:35.398Z,99952.47
2023-04-01T13:00:59.633Z,99952.84
2023-04-01T13:03:38.305Z,99970.97
2023-04-01T13:06:39.062Z,99958.59
2023-04-01T13:09:17.840Z,99970.41
2023-04-01T13:12:12.789Z,99986.47
2023-04-01T13:15:12.216Z,99978.72
2023-04-01T13:17:51.352Z,99990.34
2023-04-01T13:20:52.226Z,100002.56
2023-04-01T13:23:37.925Z,99999.00
2023-04-01T13:26:14.900Z,99995.53
2023-04-01T13:29:06.830Z,100012.78
2023-04-01T13:31:58.390Z,100019.84
2023-04-01T13:34:49.143Z,100009.78
2023-04-01T13:37:37.868Z,100007.28
2023-04-01T13:40:36.341Z,100022.13
2023-04-01T13:43:17.716Z,100035.47
2023-04-01T13:46:02.629Z,100027.41
2023-04-01T13:48:41.354Z,100021.97
2023-04-01T13:51:27.146Z,100030.00
2023-04-01T13:54:15.256Z,100046.28
2023-04-01T13:57:20.147Z,100042.00
2023-04-01T14:00:04.335Z,100065.72
2023-04-01T14:02:55.852Z,100058.34
2023-04-01T14:05:43.323Z,100060.59
2023-04-01T14:08:48.087Z,100062.47
2023-04-01T14:11:22.878Z,100066.94
2023-04-01T14:14:14.130Z,100065.75
2023-04-01T14:17:01.032Z,100072.56
2023-04-01T14:19:31.033Z,100084.00
2023-04-01T14:22:22.706Z,100083.56
2023-04-01T14:25:28.140Z,100080.59
2023-04-01T14:28:22.460Z,100091.34
2023-04-01T14:30:56.553Z,100088.50
2023-04-01T14:33:46.431Z,100105.38
2023-04-01T14:37:05.740Z,100109.66
2023-04-01T14:39:56.466Z,100109.47
2023-04-01T14:43:01.064Z,100118.06
2023-04-01T14:45:50.913Z,100124.22
2023-04-01T14:48:40.966Z,100112.81
2023-04-01T14:51:19.854Z,100121.81
2023-04-01T14:54:07.411Z,100112.31
2023-04-01T14:57:00.565Z,100130.66
2023-04-01T14:59:29.707Z,100145.69
2023-04-01T15:02:03.059Z,100146.19
2023-04-01T15:04:51.342Z,100148.63
2023-04-01T15:07:55.897Z,100158.25
2023-04-01T15:10:31.609Z,100161.78
2023-04-01T15:13:19.195Z,100166.66
2023-04-01T15:16:03.852Z,100161.47
2023-04-01T15:18:45.484Z,100165.59
2023-04-01T15:21:29.100Z,100181.50
2023-04-01T15:24:06.244Z,100177.16
2023-04-01T15:27:10.028Z,100182.75
2023-04-01T15:30:02.171Z,100196.13
2023-04-01T15:32:51.021Z,100200.16
2023-04-01T15:35:36.298Z,100202.16
2023-04-01T15:38:20.906Z,100207.78
2023-04-01T15:41:04.941Z,100222.84
2023-04-01T15:43:43.852Z,100217.88
2023-04-01T15:46:32.739Z,100221.66
2023-04-01T15:49:02.144Z,100217.53
2023-04-01T15:51:37.586Z,100232.25
2023-04-01T15:54:07.202Z,100229.03
2023-04-01T15:57:15.775Z,100243.22
2023-04-01T15:59:51.093Z,100238.31
2023-04-01T16:02:42.781Z,100240.81
2023-04-01T16:05:28.179Z,100268.88
2023-04-01T16:08:33.096Z,100268.03
2023-04-01T16:11:43.906Z,100258.22
2023-04-01T16:14:16.511Z,100262.03
2023-04-01T16:17:00.161Z,100264.97
2023-04-01T16:19:36.316Z,100276.78
2023-04-01T16:22:41.131Z,100277.84
2023-04-01T16:25:30.260Z,100296.25
2023-04-01T16:28:16.349Z,100294.72
2023-04-01T16:31:11.091Z,100299.75
2023-04-01T16:34:16.351Z,100309.44
2023-04-01T16:36:49.144Z,100316.31
2023-04-01T16:39:31.172Z,100309.16
2023-04-01T16:42:04.593Z,100316.00
2023-04-01T16:44:31.292Z,100318.56
2023-04-01T16:47:14.002Z,100335.53
2023-04-01T16:49:51.851Z,100337.56
2023-04-01T16:52:32.190Z,100326.34
2023-04-01T16:55:13.288Z,100353.25
2023-04-01T16:57:57.292Z,100358.00
2023-04-01T17:00:52.961Z,100358.59
2023-04-01T17:03:34.518Z,100358.78
2023-04-01T17:06:25.187Z,100370.13
2023-04-01T17:09:01.284Z,100377.41
2023-04-01T17:11:43.249Z,100386.19
2023-04-01T17:14:33.970Z,100392.84
2023-04-01T17:17:26.592Z,100416.25
2023-04-01T17:20:21.344Z,100404.91
2023-04-01T17:22:59.923Z,100407.25
2023-04-01T17:25:33.312Z,100422.34
2023-04-01T17:28:18.752Z,100421.81
2023-04-01T17:31:14.586Z,100424.72
2023-04-01T17:34:08.890Z,100447.97
2023-04-01T17:36:56.697Z,100437.34
2023-04-01T17:39:55.924Z,100448.56
2023-04-01T17:42:41.690Z,100469.38
2023-04-01T17:45:30.052Z,100451.69
2023-04-01T17:48:11.611Z,100459.03
2023-04-01T17:50:46.983Z,100461.69
2023-04-01T17:54:06.230Z,100467.44
2023-04-01T17:56:55.723Z,100483.41
2023-04-01T17:59:34.565Z,100483.69
2023-04-01T18:02:06.983Z,100489.34
2023-04-01T18:04:51.986Z,100530.50
2023-04-01T18:07:39.729Z,100506.59
2023-04-01T18:10:12.192Z,100524.00
2023-04-01T18:13:27.035Z,100529.66
2023-04-01T18:16:20.989Z,100532.94
2023-04-01T18:19:03.818Z,100537.00
2023-04-01T18:21:30.443Z,100544.00
2023-04-01T18:24:02.612Z,100558.28
2023-04-01T18:26:35.222Z,100567.91
2023-04-01T18:29:43.722Z,100563.28
2023-04-01T18:32:25.784Z,100567.88
2023-04-01T18:34:55.675Z,100587.41
2023-04-01T18:37:32.565Z,100592.25
2023-04-01T18:40:14.731Z,100628.31
2023-04-01T18:42:56.877Z,100596.84
2023-04-01T18:45:35.113Z,100601.44
2023-04-01T18:48:24.004Z,100610.53
2023-04-01T18:51:22.828Z,100625.94
2023-04-01T18:54:01.470Z,100619.81
2023-04-01T18:56:35.472Z,100630.38
2023-04-01T18:59:04.939Z,100626.13
2023-04-01T19:01:44.183Z,100624.00
2023-04-01T19:04:22.075Z,100643.22
2023-04-01T19:06:58.351Z,100658.53
2023-04-01T19:09:43.637Z,100654.63
2023-04-01T19:12:22.064Z,100652.63
2023-04-01T19:15:09.967Z,100679.44
2023-04-01T19:17:45.725Z,100670.78
2023-04-01T19:20:30.579Z,100668.91
2023-04-01T19:23:18.509Z,100679.19
2023-04-01T19:25:52.105Z,100671.59
2023-04-01T19:28:27.046Z,100689.94
2023-04-01T19:31:25.988Z,100703.88
2023-04-01T19:33:55.679Z,100693.22
2023-04-01T19:36:40.942Z,100702.75
2023-04-01T19:39:31.819Z,100702.38
2023-04-01T19:42:20.654Z,100704.56
2023-04-01T19:45:17.887Z,100729.13
2023-04-01T19:48:13.381Z,100719.00
2023-04-01T19:50:56.950Z,100720.09
2023-04-01T19:53:41.460Z,100732.06
2023-04-01T19:56:17.193Z,100743.25
2023-04-01T19:58:55.971Z,100735.53
2023-04-01T20:01:44.585Z,100748.91
2023-04-01T20:04:29.003Z,100741.56
2023-04-01T20:07:04.858Z,100760.81
2023-04-01T20:09:52.763Z,100758.66
2023-04-01T20:12:28.229Z,100766.16
2023-04-01T20:14:58.470Z,100771.25
2023-04-01T20:17:31.959Z,100773.31
2023-04-01T20:20:16.205Z,100788.84
2023-04-01T20:22:45.984Z,100790.91
2023-04-01T20:25:31.777Z,100807.84
2023-04-01T20:28:19.632Z,100809.44
2023-04-01T20:31:06.557Z,100822.94
2023-04-01T20:34:09.551Z,100814.28
2023-04-01T20:37:14.325Z,100817.03
2023-04-01T20:39:59.468Z,100829.59
2023-04-01T20:42:47.065Z,100834.78
2023-04-01T20:45:56.173Z,100844.66
2023-04-01T20:49:03.660Z,100844.16
2023-04-01T20:51:34.232Z,100846.72
2023-04-01T20:54:43.644Z,100848.00
2023-04-01T20:57:13.942Z,100856.47
2023-04-01T21:00:16.914Z,100865.91
2023-04-01T21:03:14.452Z,100861.09
2023-04-01T21:06:00.646Z,100865.34
2023-04-01T21:08:50.825Z,100877.22
2023-04-01T21:11:32.546Z,100877.63
2023-04-01T21:14:08.263Z,100889.50
2023-04-01T21:16:59.745Z,100884.16
2023-04-01T21:19:35.544Z,100892.03
2023-04-01T21:22:17.572Z,100894.53
2023-04-01T21:25:05.868Z,100904.38
2023-04-01T21:28:10.232Z,100903.66
2023-04-01T21:31:11.742Z,100912.34
2023-04-01T21:34:08.392Z,100915.59
2023-04-01T21:37:04.688Z,100924.78
2023-04-01T21:40:02.870Z,100923.84
2023-04-01T21:42:58.869Z,100940.22
2023-04-01T21:45:34.705Z,100932.69
2023-04-01T21:48:13.783Z,100932.53
2023-04-01T21:50:46.465Z,100942.91
2023-04-01T21:54:07.203Z,100940.41
2023-04-01T21:57:04.270Z,100955.53
2023-04-01T21:59:46.220Z,100963.56
2023-04-01T22:02:47.120Z,100955.25
2023-04-01T22:05:38.402Z,100963.28
2023-04-01T22:08:07.835Z,100961.13
2023-04-01T22:11:00.185Z,100967.59
2023-04-01T22:13:40.678Z,100972.06
2023-04-01T22:16:40.703Z,100975.88
2023-04-01T22:19:20.891Z,100985.63
2023-04-01T22:22:05.163Z,100989.63
2023-04-01T22:24:43.066Z,100992.97
2023-04-01T22:27:37.137Z,101005.78
2023-04-01T22:30:25.540Z,101006.25
2023-04-01T22:32:59.116Z,101016.59
2023-04-01T22:35:45.511Z,101012.00
2023-04-01T22:38:18.084Z,101016.13
2023-04-01T22:40:58.245Z,101036.34
2023-04-01T22:43:30.219Z,101029.22
2023-04-01T22:46:27.642Z,101049.09
2023-04-01T22:49:17.534Z,101047.88
2023-04-01T22:51:54.461Z,101048.06
2023-04-01T22:54:30.616Z,101054.44
2023-04-01T22:57:03.622Z,101055.78
2023-04-01T22:59:43.255Z,101062.59
2023-04-01T23:02:19.067Z,101063.31
2023-04-01T23:04:53.216Z,101076.88
2023-04-01T23:07:34.058Z,101064.59
2023-04-01T23:10:05.157Z,101083.03
2023-04-01T23:12:34.355Z,101078.94
2023-04-01T23:15:02.756Z,101088.25
2023-04-01T23:17:43.126Z,101088.31
2023-04-01T23:20:33.117Z,101107.50
2023-04-01T23:23:25.087Z,101102.19
2023-04-01T23:26:13.435Z,101115.81
2023-04-01T23:28:45.244Z,101104.59
2023-04-01T23:31:31.397Z,101109.53
2023-04-01T23:34:16.800Z,101109.09
2023-04-01T23:36:47.651Z,101108.25
2023-04-01T23:39:40.982Z,101136.16
2023-04-01T23:42:23.105Z,101116.69
2023-04-01T23:44:52.488Z,101138.38
2023-04-01T23:47:23.357Z,101136.53
2023-04-01T23:50:04.761Z,101135.34
2023-04-01T23:52:36.780Z,101139.75
2023-04-01T23:55:33.013Z,101141.03
2023-04-01T23:58:08.810Z,101142.63
